Terminal Aerodrome Forecast
Issued by NWS

Current Version | Previous Version | Text Only | Print | Product List | Glossary Off
Versions: 1 2 3 4 5 6 7 8 9 10 11 12 13 14 15 16 17 18 19 20 21 22

000
FTUS41 KILN 250500 RRA
TAFLUK
TAF
KLUK 250542Z 2506/2606 13005KT P6SM VCSH SCT050 OVC080
      TEMPO 2506/2509 -SHRA OVC050
     FM250900 18012G20KT 4SM -SHRA OVC040
     FM251300 23013G23KT P6SM SCT035 BKN150
     FM252200 23008KT P6SM SCT040 BKN120=

USA.gov is the U.S. government's official web portal to all federal, state and local government web resources and services.